Time;durP1;ratioP1;P1;durP2;ratioP2;P2;SDS_P1;SDS_P2;PMS_P1;PMS_P2;Temp;Humidity;BMP_temperature;BMP_pressure;BME280_temperature;BME280_humidity;BME280_pressure;Samples;Min_cycle;Max_cycle;Signal;HPM_P1;HPM_P2
2023/06/21 00:00:15;;;;;;;17.98;16.13;;;;;;;;;;5015423;28;20413;-76
2023/06/21 00:02:42;;;;;;;18.67;16.80;;;;;;;;;;5015799;28;20117;-75
2023/06/21 00:05:08;;;;;;;18.52;16.42;;;;;;;;;;5015658;28;20053;-75
2023/06/21 00:07:35;;;;;;;19.83;16.05;;;;;;;;;;5033085;28;20029;-74
2023/06/21 00:10:01;;;;;;;17.80;15.45;;;;;;;;;;5033239;28;20446;-75
2023/06/21 00:12:28;;;;;;;15.60;14.00;;;;;;;;;;5032335;28;20029;-75
2023/06/21 00:14:54;;;;;;;18.58;16.67;;;;;;;;;;5033006;28;20514;-75
2023/06/21 00:17:20;;;;;;;17.85;16.08;;;;;;;;;;5015186;28;20439;-75
2023/06/21 00:19:47;;;;;;;16.73;15.07;;;;;;;;;;5033055;28;20456;-75
2023/06/21 00:22:20;;;;;;;18.05;16.25;;;;;;;;;;5032826;28;20083;-75
2023/06/21 00:24:46;;;;;;;17.17;15.48;;;;;;;;;;5015115;28;20029;-75
2023/06/21 00:27:12;;;;;;;17.45;15.40;;;;;;;;;;5001871;28;20041;-75
2023/06/21 00:29:38;;;;;;;16.20;14.57;;;;;;;;;;5041009;22;20045;-75
2023/06/21 00:32:04;;;;;;;17.15;15.35;;;;;;;;;;5032705;28;20033;-75
2023/06/21 00:34:30;;;;;;;16.30;14.80;;;;;;;;;;5032750;28;20080;-75
2023/06/21 00:36:56;;;;;;;15.38;13.98;;;;;;;;;;5015017;28;20026;-75
2023/06/21 00:39:22;;;;;;;16.88;15.18;;;;;;;;;;5014734;28;20045;-75
2023/06/21 00:41:48;;;;;;;16.80;14.43;;;;;;;;;;5032518;28;20026;-75
2023/06/21 00:44:14;;;;;;;16.30;14.63;;;;;;;;;;5014904;28;20399;-75
2023/06/21 00:46:40;;;;;;;16.08;14.45;;;;;;;;;;5032542;28;20021;-75
2023/06/21 00:49:06;;;;;;;16.27;14.63;;;;;;;;;;5014562;28;20098;-75
2023/06/21 00:51:33;;;;;;;15.75;14.32;;;;;;;;;;5014597;28;20562;-75
2023/06/21 00:54:00;;;;;;;18.00;14.57;;;;;;;;;;5032544;28;20072;-75
2023/06/21 00:56:26;;;;;;;17.15;15.35;;;;;;;;;;5032384;28;20034;-75
2023/06/21 00:58:52;;;;;;;16.85;15.13;;;;;;;;;;5014493;28;20022;-75
2023/06/21 01:01:18;;;;;;;18.27;16.38;;;;;;;;;;5032342;28;20503;-75
2023/06/21 01:03:44;;;;;;;16.60;14.93;;;;;;;;;;5032140;28;20029;-75
2023/06/21 01:06:11;;;;;;;19.23;15.98;;;;;;;;;;5032207;28;20036;-75
2023/06/21 01:08:37;;;;;;;17.50;15.68;;;;;;;;;;5014150;28;20522;-75
2023/06/21 01:11:14;;;;;;;17.48;15.32;;;;;;;;;;5014253;28;20038;-75
2023/06/21 01:13:58;;;;;;;21.25;15.95;;;;;;;;;;5032356;28;20519;-76
2023/06/21 01:16:27;;;;;;;18.30;16.42;;;;;;;;;;5014471;28;20018;-76
2023/06/21 01:18:53;;;;;;;18.08;15.90;;;;;;;;;;5014296;28;20053;-76
2023/06/21 01:21:42;;;;;;;16.67;14.98;;;;;;;;;;5020452;22;20065;-75
2023/06/21 01:24:33;;;;;;;19.23;15.85;;;;;;;;;;5000705;28;20124;-76
2023/06/21 01:27:18;;;;;;;16.95;15.30;;;;;;;;;;5012114;28;20032;-76
2023/06/21 01:29:47;;;;;;;16.25;14.55;;;;;;;;;;5010535;28;20416;-75
2023/06/21 01:32:15;;;;;;;16.83;14.43;;;;;;;;;;5012180;28;20113;-76
2023/06/21 01:34:41;;;;;;;19.85;13.32;;;;;;;;;;4994494;28;20022;-75
2023/06/21 01:37:08;;;;;;;14.60;12.65;;;;;;;;;;5012068;28;20018;-75
2023/06/21 01:39:35;;;;;;;12.85;10.75;;;;;;;;;;4994396;28;20025;-75
2023/06/21 01:42:04;;;;;;;13.25;10.20;;;;;;;;;;5012273;28;20026;-76
2023/06/21 01:44:30;;;;;;;15.65;11.73;;;;;;;;;;5011930;28;20025;-76
2023/06/21 01:46:58;;;;;;;13.85;10.80;;;;;;;;;;5012029;28;20034;-76
2023/06/21 01:52:27;;;;;;;;;;;;;;;;;;;;;
2023/06/21 01:58:31;;;;;;;11.60;8.18;;;;;;;;;;5003489;28;20510;-76
2023/06/21 02:00:57;;;;;;;16.58;8.85;;;;;;;;;;5046886;22;20148;-74
2023/06/21 02:03:24;;;;;;;9.32;7.68;;;;;;;;;;5013201;28;20025;-74
2023/06/21 02:05:51;;;;;;;17.40;7.82;;;;;;;;;;5030952;28;20051;-74
2023/06/21 02:08:17;;;;;;;11.45;8.35;;;;;;;;;;5030946;28;20519;-73
2023/06/21 02:10:44;;;;;;;10.48;7.32;;;;;;;;;;5031106;28;20079;-74
2023/06/21 02:13:12;;;;;;;8.73;6.82;;;;;;;;;;5031559;28;20029;-74
2023/06/21 02:15:38;;;;;;;10.95;7.57;;;;;;;;;;5031126;28;20044;-74
2023/06/21 02:18:05;;;;;;;12.82;7.40;;;;;;;;;;5031035;28;20017;-74
2023/06/21 02:20:31;;;;;;;9.80;6.82;;;;;;;;;;5013676;28;20446;-76
2023/06/21 02:22:57;;;;;;;10.63;6.80;;;;;;;;;;5013403;28;20029;-74
2023/06/21 02:25:23;;;;;;;8.05;6.70;;;;;;;;;;5013389;28;20080;-75
2023/06/21 02:27:49;;;;;;;7.90;6.75;;;;;;;;;;5012881;28;20116;-74
2023/06/21 02:30:15;;;;;;;14.55;7.32;;;;;;;;;;5013402;28;20129;-75
2023/06/21 02:32:41;;;;;;;10.05;7.40;;;;;;;;;;5030826;28;20129;-75
2023/06/21 02:35:09;;;;;;;10.25;7.28;;;;;;;;;;5031106;28;20377;-74
2023/06/21 02:37:36;;;;;;;11.50;7.13;;;;;;;;;;5034174;28;20476;-75
2023/06/21 02:40:11;;;;;;;9.30;7.30;;;;;;;;;;5034737;28;20078;-75
2023/06/21 02:42:37;;;;;;;12.80;7.93;;;;;;;;;;5034469;28;20057;-75
2023/06/21 02:45:03;;;;;;;11.90;7.47;;;;;;;;;;5016783;28;20034;-74
2023/06/21 02:47:29;;;;;;;13.77;8.07;;;;;;;;;;5016486;28;20033;-75
2023/06/21 02:49:56;;;;;;;11.20;7.68;;;;;;;;;;5016513;28;20033;-74
2023/06/21 02:52:22;;;;;;;8.50;7.20;;;;;;;;;;5034287;28;20029;-75
2023/06/21 02:54:48;;;;;;;8.93;7.50;;;;;;;;;;5034344;28;20028;-75
2023/06/21 02:57:14;;;;;;;10.90;7.30;;;;;;;;;;5034125;28;20028;-75
2023/06/21 02:59:40;;;;;;;10.70;7.40;;;;;;;;;;5016362;28;20076;-75
2023/06/21 03:02:06;;;;;;;11.32;7.78;;;;;;;;;;5016435;28;20046;-76
2023/06/21 03:04:32;;;;;;;10.55;7.95;;;;;;;;;;5033980;28;20049;-75
2023/06/21 03:07:01;;;;;;;16.92;8.60;;;;;;;;;;5034304;28;20076;-74
2023/06/21 03:09:27;;;;;;;11.82;7.72;;;;;;;;;;5016165;28;20026;-75
2023/06/21 03:11:53;;;;;;;11.07;7.40;;;;;;;;;;5033964;28;20022;-75
2023/06/21 03:14:19;;;;;;;13.68;8.82;;;;;;;;;;5016235;28;20026;-74
2023/06/21 03:16:46;;;;;;;11.38;8.02;;;;;;;;;;5032287;28;20025;-74
2023/06/21 03:19:12;;;;;;;9.07;7.50;;;;;;;;;;5030945;28;20084;-74
2023/06/21 03:21:38;;;;;;;13.57;8.00;;;;;;;;;;5031889;28;20471;-74
2023/06/21 03:24:04;;;;;;;10.88;7.13;;;;;;;;;;5015832;28;20044;-74
2023/06/21 03:26:32;;;;;;;9.65;7.40;;;;;;;;;;5033701;28;20459;-74
2023/06/21 03:29:00;;;;;;;8.82;6.32;;;;;;;;;;5015719;28;20021;-74
2023/06/21 03:31:26;;;;;;;9.85;6.80;;;;;;;;;;5015680;28;20034;-74
2023/06/21 03:33:52;;;;;;;10.15;6.40;;;;;;;;;;5033438;28;20021;-75
2023/06/21 03:36:18;;;;;;;10.25;6.03;;;;;;;;;;5015627;28;20032;-75
2023/06/21 03:38:44;;;;;;;8.30;5.28;;;;;;;;;;5015480;28;20021;-74
2023/06/21 03:41:10;;;;;;;8.98;4.70;;;;;;;;;;5033405;28;20028;-74
2023/06/21 03:43:36;;;;;;;8.57;5.63;;;;;;;;;;5015913;28;20106;-75
2023/06/21 03:46:02;;;;;;;10.13;5.53;;;;;;;;;;5033307;28;20022;-75
2023/06/21 03:48:28;;;;;;;7.72;5.60;;;;;;;;;;5032146;28;20487;-76
2023/06/21 03:50:54;;;;;;;9.70;5.55;;;;;;;;;;5033283;28;20051;-76
2023/06/21 03:53:21;;;;;;;10.05;5.55;;;;;;;;;;5033500;28;20036;-75
2023/06/21 03:55:47;;;;;;;8.43;5.00;;;;;;;;;;5015468;28;20030;-75
2023/06/21 03:58:13;;;;;;;6.07;4.85;;;;;;;;;;5032945;28;20052;-75
2023/06/21 04:00:39;;;;;;;10.10;5.72;;;;;;;;;;5015164;28;20037;-75
2023/06/21 04:03:05;;;;;;;7.20;4.25;;;;;;;;;;5033446;28;20029;-75
2023/06/21 04:05:31;;;;;;;8.75;4.18;;;;;;;;;;5015457;28;20033;-75
2023/06/21 04:07:58;;;;;;;5.10;3.63;;;;;;;;;;5032673;28;20151;-75
2023/06/21 04:10:25;;;;;;;5.00;3.33;;;;;;;;;;5015085;28;20024;-75
2023/06/21 04:12:51;;;;;;;7.65;3.40;;;;;;;;;;5014894;28;20124;-76
2023/06/21 04:15:17;;;;;;;6.18;3.15;;;;;;;;;;5015011;28;20014;-74
2023/06/21 04:17:43;;;;;;;4.68;2.90;;;;;;;;;;5032481;28;20097;-75
2023/06/21 04:20:11;;;;;;;4.18;2.75;;;;;;;;;;5015004;28;20140;-75
2023/06/21 04:22:41;;;;;;;4.85;2.53;;;;;;;;;;5032685;28;20088;-75
2023/06/21 04:25:07;;;;;;;4.57;2.22;;;;;;;;;;5032651;28;20026;-75
2023/06/21 04:27:33;;;;;;;5.50;2.72;;;;;;;;;;5032436;28;20033;-74
2023/06/21 04:30:01;;;;;;;3.53;2.38;;;;;;;;;;5032345;28;20128;-75
2023/06/21 04:32:31;;;;;;;5.40;2.60;;;;;;;;;;5014770;28;20115;-74
2023/06/21 04:34:57;;;;;;;6.10;2.38;;;;;;;;;;5014462;28;20025;-74
2023/06/21 04:37:24;;;;;;;7.20;2.60;;;;;;;;;;5010851;28;20061;-75
2023/06/21 04:39:50;;;;;;;4.20;2.55;;;;;;;;;;5031724;28;20022;-74
2023/06/21 04:42:20;;;;;;;4.22;2.30;;;;;;;;;;5032391;28;20033;-75
2023/06/21 04:44:50;;;;;;;8.02;2.65;;;;;;;;;;5026888;28;20108;-75
2023/06/21 04:47:16;;;;;;;4.35;2.28;;;;;;;;;;5013441;28;20043;-74
2023/06/21 04:49:43;;;;;;;7.97;2.33;;;;;;;;;;5031732;28;20060;-74
2023/06/21 04:52:09;;;;;;;3.78;2.30;;;;;;;;;;5031793;28;20571;-75
2023/06/21 04:54:36;;;;;;;5.57;2.55;;;;;;;;;;5014215;28;20031;-74
2023/06/21 04:57:04;;;;;;;6.15;2.40;;;;;;;;;;5031517;28;20014;-74
2023/06/21 04:59:30;;;;;;;6.43;3.17;;;;;;;;;;5031077;28;20021;-74
2023/06/21 05:01:56;;;;;;;7.60;3.05;;;;;;;;;;5031832;28;20570;-74
2023/06/21 05:04:22;;;;;;;5.63;3.08;;;;;;;;;;5031431;28;20021;-76
2023/06/21 05:06:48;;;;;;;7.05;3.05;;;;;;;;;;5031974;28;20029;-74
2023/06/21 05:09:14;;;;;;;11.90;4.03;;;;;;;;;;5031585;28;20021;-76
2023/06/21 05:11:40;;;;;;;7.50;3.53;;;;;;;;;;5031594;28;20024;-76
2023/06/21 05:14:16;;;;;;;7.13;3.13;;;;;;;;;;5031644;28;20029;-78
2023/06/21 05:16:42;;;;;;;5.82;3.17;;;;;;;;;;5032006;28;20025;-75
2023/06/21 05:19:07;;;;;;;9.07;3.90;;;;;;;;;;5031472;28;20383;-76
2023/06/21 05:21:33;;;;;;;7.88;3.40;;;35.00;38.30;;;;;;5030951;28;20041;-75
2023/06/21 05:23:59;;;;;;;6.25;3.10;;;35.20;37.90;;;;;;5041592;28;20112;-75
2023/06/21 05:26:24;;;;;;;10.88;3.92;;;35.60;37.10;;;;;;5051236;28;20024;-75
2023/06/21 05:28:50;;;;;;;8.68;3.60;;;36.40;35.70;;;;;;5033796;28;20108;-74
2023/06/21 05:31:16;;;;;;;8.90;3.55;;;36.30;35.70;;;;;;5040892;28;20021;-75
2023/06/21 05:33:41;;;;;;;9.15;3.88;;;36.60;35.30;;;;;;5026786;28;20182;-75
2023/06/21 05:36:09;;;;;;;10.88;4.07;;;37.00;34.50;;;;;;5031307;28;20017;-75
2023/06/21 05:38:34;;;;;;;10.18;3.90;;;37.30;34.40;;;;;;5012987;28;20022;-76
2023/06/21 05:41:00;;;;;;;10.60;3.47;;;37.40;34.30;;;;;;5036876;28;20036;-76
2023/06/21 05:43:25;;;;;;;6.55;3.83;;;37.40;34.20;;;;;;5031022;28;20034;-75
2023/06/21 05:45:51;;;;;;;9.65;4.68;;;37.90;34.20;;;;;;5030980;28;20026;-76
2023/06/21 05:48:17;;;;;;;5.72;3.25;;;38.40;32.80;;;;;;5013369;28;20032;-76
2023/06/21 05:50:43;;;;;;;7.60;3.58;;;39.40;32.10;;;;;;5013527;28;20017;-76
2023/06/21 05:53:09;;;;;;;9.95;4.05;;;40.00;30.70;;;;;;5031195;28;20443;-76
2023/06/21 05:55:34;;;;;;;5.05;3.83;;;40.70;29.70;;;;;;5031116;28;20025;-75
2023/06/21 05:58:00;;;;;;;5.95;3.53;;;40.80;29.30;;;;;;5030851;28;20079;-75
2023/06/21 06:00:25;;;;;;;8.35;4.00;;;40.60;30.10;;;;;;5030673;28;20155;-74
2023/06/21 06:02:51;;;;;;;6.47;3.38;;;40.90;29.50;;;;;;5031464;28;20037;-74
2023/06/21 06:05:18;;;;;;;4.75;3.35;;;40.90;29.30;;;;;;5031077;28;20401;-75
2023/06/21 06:07:43;;;;;;;7.10;3.90;;;41.00;29.50;;;;;;5030965;28;20539;-75
2023/06/21 06:10:09;;;;;;;7.45;3.50;;;;;;;;;;5031054;28;20100;-75
2023/06/21 06:12:35;;;;;;;5.68;3.38;;;;;;;;;;5034613;28;20757;-75
2023/06/21 06:15:01;;;;;;;11.13;4.35;;;39.20;31.70;;;;;;5034677;28;20026;-71
2023/06/21 06:17:27;;;;;;;7.55;4.38;;;39.70;31.50;;;;;;5034352;28;20025;-69
2023/06/21 06:19:53;;;;;;;9.32;3.97;;;39.90;31.00;;;;;;5015983;28;20056;-70
2023/06/21 06:22:18;;;;;;;8.10;3.70;;;39.70;32.20;;;;;;5032868;28;20444;-75
2023/06/21 06:24:46;;;;;;;5.28;3.72;;;38.90;32.30;;;;;;5027517;28;20056;-77
2023/06/21 06:27:12;;;;;;;6.07;4.00;;;39.20;32.00;;;;;;5027733;28;20028;-76
2023/06/21 06:29:37;;;;;;;6.90;3.83;;;39.60;31.10;;;;;;5035129;28;20029;-78
2023/06/21 06:32:03;;;;;;;7.70;4.03;;;39.80;31.00;;;;;;5028064;28;20048;-78
2023/06/21 06:34:28;;;;;;;6.75;3.95;;;39.50;31.40;;;;;;5018633;28;20021;-77
2023/06/21 06:36:54;;;;;;;5.70;3.60;;;39.70;31.00;;;;;;4999491;28;20510;-78
2023/06/21 06:39:20;;;;;;;8.40;4.13;;;39.80;31.00;;;;;;5036723;28;20029;-79
2023/06/21 06:41:45;;;;;;;8.18;3.58;;;40.10;30.40;;;;;;5032394;28;20033;-78
2023/06/21 06:44:11;;;;;;;7.00;3.95;;;40.40;30.30;;;;;;5033169;28;20400;-78
2023/06/21 06:46:36;;;;;;;6.03;4.05;;;40.30;30.70;;;;;;5032717;28;20032;-78
2023/06/21 06:49:02;;;;;;;6.70;3.90;;;40.50;30.30;;;;;;5032301;28;20644;-77
2023/06/21 06:51:27;;;;;;;6.97;4.38;;;40.70;29.60;;;;;;5032486;28;20061;-78
2023/06/21 06:53:53;;;;;;;5.82;3.80;;;39.60;30.80;;;;;;5032724;28;20115;-77
2023/06/21 06:56:19;;;;;;;8.35;4.05;;;39.70;30.80;;;;;;5034263;28;20039;-78
2023/06/21 06:58:44;;;;;;;4.65;3.50;;;40.60;30.20;;;;;;5034032;28;20495;-79
2023/06/21 07:01:10;;;;;;;7.30;4.22;;;40.90;29.60;;;;;;5034295;28;20029;-78
2023/06/21 07:03:36;;;;;;;6.07;4.10;;;41.00;29.10;;;;;;5034288;28;20395;-79
2023/06/21 07:06:01;;;;;;;7.88;4.10;;;41.00;29.10;;;;;;5034527;28;20365;-78
2023/06/21 07:08:27;;;;;;;9.23;3.72;;;40.70;29.00;;;;;;5034460;28;20113;-79
2023/06/21 07:10:53;;;;;;;6.97;4.55;;;40.40;29.70;;;;;;5033010;28;20418;-78
2023/06/21 07:13:21;;;;;;;6.43;3.97;;;39.80;30.40;;;;;;5034531;28;20579;-79
2023/06/21 07:15:46;;;;;;;7.05;4.57;;;40.00;29.80;;;;;;5034155;28;20021;-79
2023/06/21 07:18:12;;;;;;;9.73;3.80;;;39.40;31.00;;;;;;5033763;28;20563;-78
2023/06/21 07:20:38;;;;;;;8.98;4.00;;;39.30;32.00;;;;;;5034089;28;20029;-78
2023/06/21 07:23:04;;;;;;;7.95;4.57;;;39.50;31.20;;;;;;5033755;28;20521;-79
2023/06/21 07:25:30;;;;;;;7.45;4.18;;;40.10;30.50;;;;;;5033799;28;20104;-79
2023/06/21 07:27:55;;;;;;;6.38;4.22;;;40.30;30.20;;;;;;5033750;28;20504;-78
2023/06/21 07:30:22;;;;;;;7.57;4.18;;;40.30;30.30;;;;;;5033556;28;20052;-78
2023/06/21 07:32:49;;;;;;;4.53;3.72;;;40.20;30.10;;;;;;5015935;28;20071;-79
2023/06/21 07:35:14;;;;;;;5.35;3.92;;;39.90;30.80;;;;;;5034321;28;20017;-78
2023/06/21 07:37:42;;;;;;;5.50;4.50;;;39.60;30.50;;;;;;5034004;28;20028;-78
2023/06/21 07:40:08;;;;;;;20.17;4.68;;;40.20;29.90;;;;;;5034713;28;20060;-79
2023/06/21 07:42:34;;;;;;;5.28;4.25;;;40.40;30.40;;;;;;5034999;28;20373;-79
2023/06/21 07:45:00;;;;;;;7.75;4.35;;;39.90;30.70;;;;;;5034175;28;20055;-79
2023/06/21 07:47:29;;;;;;;6.40;4.03;;;39.50;31.00;;;;;;5034472;28;20061;-79
2023/06/21 07:49:54;;;;;;;9.05;4.63;;;40.40;30.50;;;;;;5017199;28;20037;-79
2023/06/21 07:52:20;;;;;;;6.57;4.15;;;41.20;29.10;;;;;;5034919;28;20029;-79
2023/06/21 07:54:48;;;;;;;6.88;4.60;;;40.90;29.80;;;;;;5035060;28;20022;-79
2023/06/21 07:57:15;;;;;;;6.35;3.92;;;40.40;29.30;;;;;;5036162;28;20024;-78
2023/06/21 07:59:41;;;;;;;6.35;4.15;;;40.90;29.40;;;;;;5018196;28;20025;-79
2023/06/21 08:02:09;;;;;;;6.07;4.00;;;40.90;28.80;;;;;;5059592;23;20056;-78
2023/06/21 08:04:35;;;;;;;6.85;3.65;;;40.30;29.80;;;;;;5056791;28;20028;-78
2023/06/21 08:07:01;;;;;;;6.25;4.20;;;39.60;30.20;;;;;;5057923;28;20090;-79
2023/06/21 08:09:27;;;;;;;5.60;4.20;;;;;;;;;;5057653;28;20024;-78
2023/06/21 08:11:53;;;;;;;8.15;3.97;;;40.90;29.10;;;;;;5059692;28;20017;-78
2023/06/21 08:14:18;;;;;;;8.65;3.67;;;40.80;29.00;;;;;;5060755;28;20413;-79
2023/06/21 08:16:44;;;;;;;4.72;3.28;;;40.60;29.10;;;;;;5041453;28;20395;-79
2023/06/21 08:19:10;;;;;;;7.53;4.13;;;39.60;29.50;;;;;;5058720;28;20029;-79
2023/06/21 08:21:36;;;;;;;7.32;4.60;;;39.90;29.80;;;;;;5058566;28;20032;-79
2023/06/21 08:24:02;;;;;;;5.55;4.07;;;40.30;30.20;;;;;;5057374;28;20025;-78
2023/06/21 08:26:27;;;;;;;5.35;3.85;;;40.30;29.10;;;;;;5056864;28;20035;-79
2023/06/21 08:28:53;;;;;;;7.20;4.07;;;40.10;29.70;;;;;;5057285;28;20051;-78
2023/06/21 08:31:19;;;;;;;8.32;4.13;;;40.80;29.90;;;;;;5056499;28;20032;-78
2023/06/21 08:33:44;;;;;;;5.57;4.32;;;40.40;30.60;;;;;;5055615;28;20029;-79
2023/06/21 08:36:11;;;;;;;6.88;4.28;;;41.00;30.00;;;;;;5053518;28;20021;-78
2023/06/21 08:38:37;;;;;;;8.00;4.45;;;40.40;30.30;;;;;;5056279;28;20546;-78
2023/06/21 08:41:04;;;;;;;7.63;4.47;;;40.30;30.20;;;;;;5058191;28;20048;-78
2023/06/21 08:43:30;;;;;;;6.25;4.13;;;39.70;31.20;;;;;;5062231;28;20028;-78
2023/06/21 08:45:57;;;;;;;8.45;4.45;;;39.70;31.90;;;;;;5060411;28;20044;-78
2023/06/21 08:48:23;;;;;;;7.63;4.00;;;40.00;31.30;;;;;;5038474;28;20047;-79
2023/06/21 08:50:52;;;;;;;7.30;4.38;;;40.10;30.60;;;;;;5055873;28;20029;-79
2023/06/21 08:53:31;;;;;;;7.13;4.35;;;40.40;30.40;;;;;;5056524;28;20032;-79
2023/06/21 08:55:59;;;;;;;9.70;4.82;;;40.80;30.60;;;;;;5056154;28;20025;-79
2023/06/21 08:58:33;;;;;;;6.95;5.18;;;40.20;30.50;;;;;;5060096;28;20021;-79
2023/06/21 09:01:03;;;;;;;8.10;4.55;;;40.40;30.70;;;;;;5045476;28;20036;-79
2023/06/21 09:03:45;;;;;;;8.40;4.97;;;39.40;32.40;;;;;;5062834;28;20037;-79
2023/06/21 09:06:15;;;;;;;8.55;5.00;;;39.30;32.40;;;;;;5061671;28;20029;-79
2023/06/21 09:08:41;;;;;;;8.63;4.53;;;39.10;33.50;;;;;;5055431;28;20052;-78
2023/06/21 09:11:11;;;;;;;8.82;4.22;;;40.00;32.30;;;;;;5055068;28;20036;-79
2023/06/21 09:13:37;;;;;;;7.45;5.15;;;39.50;31.00;;;;;;5054998;28;20025;-79
2023/06/21 09:16:03;;;;;;;6.80;4.53;;;38.90;32.50;;;;;;5037761;28;20021;-79
2023/06/21 09:18:35;;;;;;;8.70;4.57;;;39.00;32.10;;;;;;5037456;28;20094;-79
2023/06/21 09:21:02;;;;;;;9.68;5.05;;;39.40;32.10;;;;;;5055445;28;20402;-78
2023/06/21 09:23:28;;;;;;;9.65;5.10;;;39.70;30.80;;;;;;5054925;28;20091;-78
2023/06/21 09:25:55;;;;;;;7.30;4.30;;;38.80;32.20;;;;;;5054639;28;20029;-78
2023/06/21 09:28:21;;;;;;;9.75;4.80;;;38.30;33.00;;;;;;5054033;28;20454;-78
2023/06/21 09:30:47;;;;;;;8.25;4.88;;;37.60;34.50;;;;;;5054637;28;20029;-78
2023/06/21 09:33:13;;;;;;;8.68;4.53;;;37.70;34.90;;;;;;5057337;28;20068;-79
2023/06/21 09:35:39;;;;;;;8.10;4.85;;;38.40;33.40;;;;;;5058761;28;20086;-80
2023/06/21 09:38:23;;;;;;;8.05;4.50;;;38.50;32.60;;;;;;5059706;28;20047;-78
2023/06/21 09:40:48;;;;;;;8.88;4.57;;;38.80;32.10;;;;;;5058824;28;20104;-79
2023/06/21 09:43:14;;;;;;;7.03;4.32;;;39.20;32.50;;;;;;5059081;28;20033;-78
2023/06/21 09:45:39;;;;;;;6.78;4.38;;;39.10;31.80;;;;;;5062676;28;20025;-79
2023/06/21 09:48:05;;;;;;;8.07;5.00;;;39.50;31.30;;;;;;5045077;28;20044;-79
2023/06/21 09:50:41;;;;;;;10.52;4.88;;;38.50;33.00;;;;;;5063744;28;20494;-79
2023/06/21 09:53:11;;;;;;;7.88;4.32;;;38.40;32.50;;;;;;5063897;28;20032;-79
2023/06/21 09:55:43;;;;;;;7.78;5.15;;;38.50;33.60;;;;;;5060961;28;20387;-79
2023/06/21 09:58:08;;;;;;;7.47;4.88;;;38.10;33.00;;;;;;5058600;28;20025;-79
2023/06/21 10:00:35;;;;;;;7.65;5.10;;;37.80;34.60;;;;;;5058788;28;20017;-79
2023/06/21 10:03:03;;;;;;;7.90;4.80;;;37.90;34.40;;;;;;5044027;28;20087;-79
2023/06/21 10:05:28;;;;;;;7.80;4.68;;;37.90;34.30;;;;;;5060719;28;20541;-79
2023/06/21 10:07:54;;;;;;;6.43;5.15;;;37.70;34.20;;;;;;5059138;28;20025;-79
2023/06/21 10:10:20;;;;;;;8.23;5.25;;;37.30;34.60;;;;;;5055557;28;20041;-79
2023/06/21 10:12:53;;;;;;;9.10;6.68;;;;;;;;;;5059376;28;20025;-80
2023/06/21 10:15:19;;;;;;;10.13;5.75;;;;;;;;;;5051094;28;20018;-80
2023/06/21 10:17:48;;;;;;;7.30;5.13;;;;;;;;;;5038344;28;20156;-79
2023/06/21 10:20:15;;;;;;;10.52;5.15;;;;;;;;;;5037560;28;20104;-79
2023/06/21 10:22:43;;;;;;;10.57;5.75;;;;;;;;;;5038413;28;20025;-79
2023/06/21 10:25:10;;;;;;;10.52;5.72;;;;;;;;;;5038755;28;20028;-79
2023/06/21 10:27:38;;;;;;;8.93;5.70;;;;;;;;;;5043546;28;20036;-78
2023/06/21 10:30:04;;;;;;;8.35;4.70;;;;;;;;;;5052147;28;20025;-79
2023/06/21 10:32:33;;;;;;;10.68;6.20;;;35.30;37.60;;;;;;5037440;28;20022;-79
2023/06/21 10:35:11;;;;;;;10.15;5.93;;;;;;;;;;5037304;28;20064;-78
2023/06/21 10:38:01;;;;;;;9.38;6.00;;;33.70;40.40;;;;;;5037622;28;20032;-79
2023/06/21 10:40:29;;;;;;;7.78;5.53;;;33.20;42.00;;;;;;5039624;28;20026;-79
2023/06/21 10:42:58;;;;;;;7.63;6.07;;;;;;;;;;5039364;28;20018;-79
2023/06/21 10:45:25;;;;;;;10.38;6.60;;;;;;;;;;5050205;28;20017;-79
2023/06/21 10:47:54;;;;;;;11.00;6.78;;;;;;;;;;5045786;28;20049;-78
2023/06/21 10:50:20;;;;;;;9.43;6.20;;;;;;;;;;5035267;28;20026;-77
2023/06/21 10:52:48;;;;;;;10.60;6.45;;;;;;;;;;5044376;28;20025;-78
2023/06/21 10:55:14;;;;;;;8.85;6.22;;;;;;;;;;5052324;28;20017;-78
2023/06/21 10:57:41;;;;;;;7.57;5.85;;;;;;;;;;5050784;28;20055;-79
2023/06/21 11:00:08;;;;;;;9.27;5.95;;;;;;;;;;5058563;28;20430;-78
2023/06/21 11:02:34;;;;;;;8.40;6.18;;;;;;;;;;5039228;28;20048;-79
2023/06/21 11:05:15;;;;;;;9.63;5.47;;;;;;;;;;5055112;28;20035;-78
2023/06/21 11:07:53;;;;;;;7.28;6.53;;;;;;;;;;5055595;28;20021;-78
2023/06/21 11:10:37;;;;;;;8.18;5.82;;;;;;;;;;5058202;28;20028;-78
2023/06/21 11:13:03;;;;;;;7.57;5.18;;;;;;;;;;5038562;28;20025;-78
2023/06/21 11:15:30;;;;;;;11.32;6.07;;;;;;;;;;5056543;28;20048;-78
2023/06/21 11:18:01;;;;;;;13.48;5.68;;;;;;;;;;5054388;28;20074;-78
2023/06/21 11:20:27;;;;;;;11.25;6.22;;;;;;;;;;5054214;28;20017;-79
2023/06/21 11:22:57;;;;;;;8.85;5.65;;;;;;;;;;5054128;28;20036;-78
2023/06/21 11:25:24;;;;;;;13.10;6.27;;;;;;;;;;5054247;28;20032;-78
2023/06/21 11:28:08;;;;;;;8.80;5.47;;;;;;;;;;5055613;28;20076;-78
2023/06/21 11:30:36;;;;;;;8.43;5.47;;;;;;;;;;5057209;28;20044;-78
2023/06/21 11:33:02;;;;;;;8.80;5.43;;;;;;;;;;5060582;28;20367;-79
2023/06/21 11:35:37;;;;;;;9.90;5.88;;;;;;;;;;5062750;28;20441;-79
2023/06/21 11:38:04;;;;;;;9.43;5.75;;;;;;;;;;5062710;28;20025;-79
2023/06/21 11:40:31;;;;;;;9.35;5.75;;;;;;;;;;5063213;28;20031;-79
2023/06/21 11:42:57;;;;;;;7.35;5.85;;;;;;;;;;5063150;28;20039;-78
2023/06/21 11:45:33;;;;;;;10.27;6.15;;;;;;;;;;5062803;28;20029;-78
2023/06/21 11:48:08;;;;;;;12.32;5.95;;;;;;;;;;5061852;28;20028;-78
2023/06/21 11:50:35;;;;;;;12.80;6.90;;;;;;;;;;5061378;28;20029;-78
2023/06/21 11:53:16;;;;;;;9.13;6.50;;;;;;;;;;5062333;28;20021;-79
2023/06/21 11:55:43;;;;;;;9.75;6.30;;;;;;;;;;5038473;28;20025;-79
2023/06/21 11:58:09;;;;;;;8.98;6.50;;;;;;;;;;5039004;28;20025;-79
2023/06/21 12:00:35;;;;;;;10.07;6.30;;;;;;;;;;5058771;28;20540;-79
2023/06/21 12:03:06;;;;;;;6.20;5.60;;;;;;;;;;5058801;28;20032;-79
2023/06/21 12:05:48;;;;;;;11.68;6.43;;;;;;;;;;5057456;28;20402;-79
2023/06/21 12:08:14;;;;;;;11.15;6.30;;;;;;;;;;5055316;28;20040;-79
2023/06/21 12:10:40;;;;;;;8.35;6.28;;;;;;;;;;5054627;28;20495;-78
2023/06/21 12:13:07;;;;;;;8.13;6.07;;;;;;;;;;5054159;28;20025;-78
2023/06/21 12:15:33;;;;;;;8.60;6.25;;;;;;;;;;5053456;28;20340;-79
2023/06/21 12:17:59;;;;;;;8.23;6.22;;;;;;;;;;5053789;28;20033;-78
2023/06/21 12:20:25;;;;;;;11.07;6.40;;;;;;;;;;5037472;28;20032;-78
2023/06/21 12:22:51;;;;;;;14.45;5.72;;;;;;;;;;5056718;28;20021;-79
2023/06/21 12:25:17;;;;;;;8.20;5.40;;;;;;;;;;5056449;28;20361;-79
2023/06/21 12:27:53;;;;;;;5.97;5.35;;;;;;;;;;5057723;28;20036;-78
2023/06/21 12:30:20;;;;;;;11.65;5.53;;;;;;;;;;5059550;28;20029;-78
2023/06/21 12:32:46;;;;;;;9.15;5.45;;;;;;;;;;5061661;28;20398;-79
2023/06/21 12:35:13;;;;;;;9.68;5.93;;;;;;;;;;5060925;28;20549;-78
2023/06/21 12:37:42;;;;;;;9.18;5.30;;;;;;;;;;5057073;28;20031;-78
2023/06/21 12:40:08;;;;;;;9.30;5.20;;;;;;;;;;5060382;28;20091;-78
2023/06/21 12:42:34;;;;;;;8.98;5.07;;;;;;;;;;5060925;28;20112;-79
2023/06/21 12:45:00;;;;;;;7.80;5.32;;;;;;;;;;5059323;28;20032;-81
2023/06/21 12:47:26;;;;;;;11.40;5.70;;;;;;;;;;5055841;28;20033;-77
2023/06/21 12:49:58;;;;;;;7.82;5.03;;;;;;;;;;5056795;28;20575;-78
2023/06/21 12:52:28;;;;;;;7.53;4.93;;;;;;;;;;5053422;28;20053;-78
2023/06/21 12:54:58;;;;;;;9.37;5.20;;;;;;;;;;5052435;28;20447;-78
2023/06/21 12:57:31;;;;;;;6.80;4.97;;;;;;;;;;5054907;28;20285;-79
2023/06/21 12:59:57;;;;;;;6.97;4.32;;;;;;;;;;5054226;28;20474;-79
2023/06/21 13:02:26;;;;;;;7.72;5.53;;;;;;;;;;5054562;28;20028;-79
2023/06/21 13:04:56;;;;;;;7.80;4.82;;;;;;;;;;5054182;28;20021;-79
2023/06/21 13:07:22;;;;;;;4.90;4.43;;;;;;;;;;5033996;28;20021;-78
2023/06/21 13:09:49;;;;;;;8.30;4.32;;;;;;;;;;5054438;28;20390;-78
2023/06/21 13:12:15;;;;;;;5.65;4.30;;;;;;;;;;5054697;28;20056;-79
2023/06/21 13:14:41;;;;;;;5.72;5.00;;;;;;;;;;5055645;28;20497;-79
2023/06/21 13:17:07;;;;;;;8.18;4.35;;;;;;;;;;5054712;28;20021;-77
2023/06/21 13:19:37;;;;;;;5.90;4.70;;;;;;;;;;5052177;28;20041;-78
2023/06/21 13:22:04;;;;;;;6.38;4.00;;;;;;;;;;5051191;28;20039;-79
2023/06/21 13:24:30;;;;;;;4.53;4.10;;;;;;;;;;5054760;28;20036;-78
2023/06/21 13:26:57;;;;;;;6.32;4.50;;;;;;;;;;5054460;28;20029;-79
2023/06/21 13:29:23;;;;;;;7.75;4.47;;;;;;;;;;5053119;28;20466;-79
2023/06/21 13:31:49;;;;;;;8.63;4.20;;;;;;;;;;5053252;28;20029;-79
2023/06/21 13:34:15;;;;;;;7.47;4.75;;;;;;;;;;5053710;28;20079;-79
2023/06/21 13:36:41;;;;;;;6.03;4.03;;;;;;;;;;5053398;28;20541;-78
2023/06/21 13:39:07;;;;;;;8.07;4.72;;;;;;;;;;5052746;28;20028;-80
2023/06/21 13:41:33;;;;;;;5.43;4.00;;;;;;;;;;5054606;28;20428;-77
2023/06/21 13:44:00;;;;;;;5.78;4.30;;;;;;;;;;5035475;28;20060;-78
2023/06/21 13:46:26;;;;;;;4.70;4.20;;;;;;;;;;5054838;28;20494;-78
2023/06/21 13:48:52;;;;;;;5.35;4.35;;;;;;;;;;5054964;28;20040;-78
2023/06/21 13:51:18;;;;;;;11.27;4.55;;;;;;;;;;5054992;28;20048;-78
2023/06/21 13:53:44;;;;;;;4.63;4.20;;;;;;;;;;5055285;28;20031;-78
2023/06/21 13:56:10;;;;;;;8.27;4.60;;;;;;;;;;5056152;28;20062;-78
2023/06/21 13:58:36;;;;;;;5.25;4.25;;;;;;;;;;5052217;28;20024;-79
2023/06/21 14:03:30;;;;;;;6.13;4.07;;;;;;;;;;4989127;28;20059;-77